Time;durP1;ratioP1;P1;durP2;ratioP2;P2;SDS_P1;SDS_P2;PMS_P1;PMS_P2;Temp;Humidity;BMP_temperature;BMP_pressure;BME280_temperature;BME280_humidity;BME280_pressure;Samples;Min_cycle;Max_cycle;Signal;HPM_P1;HPM_P2
2022/04/01 00:02:23;;;;;;;34.25;23.23;;;8.70;1.00;;;;;;5011187;28;20379;-80
2022/04/01 00:04:49;;;;;;;30.38;21.63;;;8.60;1.00;;;;;;5011044;28;20041;-80
2022/04/01 00:07:16;;;;;;;27.88;19.98;;;8.80;1.00;;;;;;5011503;28;20026;-80
2022/04/01 00:09:41;;;;;;;30.75;22.05;;;8.40;1.00;;;;;;5011331;28;20046;-80
2022/04/01 00:12:08;;;;;;;36.15;27.35;;;8.50;1.00;;;;;;5011351;28;20022;-80
2022/04/01 00:14:35;;;;;;;32.10;23.60;;;8.60;1.00;;;;;;5011394;28;20022;-80
2022/04/01 00:17:00;;;;;;;27.85;20.67;;;8.90;1.00;;;;;;5010877;28;20054;-80
2022/04/01 00:19:27;;;;;;;44.15;33.15;;;8.90;1.00;;;;;;5011067;28;20119;-80
2022/04/01 00:21:53;;;;;;;36.67;26.17;;;8.80;1.00;;;;;;5011993;28;20037;-80
2022/04/01 00:24:19;;;;;;;27.42;20.77;;;8.60;1.00;;;;;;5010852;28;20204;-80
2022/04/01 00:26:45;;;;;;;32.22;23.98;;;8.70;1.00;;;;;;5010909;28;20129;-80
2022/04/01 00:29:15;;;;;;;36.53;27.42;;;8.70;1.00;;;;;;5010774;28;20026;-80
2022/04/01 00:31:58;;;;;;;52.85;38.15;;;8.60;1.00;;;;;;5010857;28;20466;-80
2022/04/01 00:34:28;;;;;;;32.75;22.38;;;8.60;1.00;;;;;;4995153;28;20140;-79
2022/04/01 00:36:55;;;;;;;33.10;23.10;;;8.60;1.00;;;;;;5007510;28;20026;-80
2022/04/01 00:39:22;;;;;;;32.97;23.55;;;8.60;1.00;;;;;;5010886;28;20030;-79
2022/04/01 00:41:49;;;;;;;37.80;27.65;;;8.60;1.00;;;;;;5010679;28;20049;-80
2022/04/01 00:44:41;;;;;;;40.53;29.60;;;8.60;1.00;;;;;;5010684;28;20042;-80
2022/04/01 00:47:10;;;;;;;58.33;44.75;;;8.50;1.00;;;;;;5009340;28;20043;-80
2022/04/01 00:49:36;;;;;;;27.90;20.70;;;8.60;1.00;;;;;;5010730;28;20109;-80
2022/04/01 00:52:05;;;;;;;26.50;19.67;;;8.70;1.00;;;;;;5010633;28;20030;-80
2022/04/01 00:54:31;;;;;;;28.20;20.48;;;8.50;1.00;;;;;;5010707;28;20418;-79
2022/04/01 00:56:57;;;;;;;28.92;19.88;;;8.70;1.00;;;;;;5010520;28;20030;-80
2022/04/01 00:59:24;;;;;;;27.25;19.85;;;8.80;1.00;;;;;;5010696;28;20391;-80
2022/04/01 01:01:50;;;;;;;28.45;19.92;;;8.60;1.00;;;;;;5010525;28;20882;-80
2022/04/01 01:04:19;;;;;;;28.70;20.17;;;8.80;1.00;;;;;;5010987;28;20041;-80
2022/04/01 01:06:50;;;;;;;28.67;20.20;;;8.70;1.00;;;;;;5011290;28;20037;-80
2022/04/01 01:09:16;;;;;;;31.02;21.42;;;8.80;1.00;;;;;;5014169;28;20030;-80
2022/04/01 01:11:44;;;;;;;28.67;20.92;;;8.90;1.00;;;;;;5014318;28;20014;-80
2022/04/01 01:14:13;;;;;;;27.45;19.88;;;8.60;1.00;;;;;;5013962;28;20474;-80
2022/04/01 01:16:46;;;;;;;28.80;20.42;;;8.50;1.00;;;;;;5014413;28;20029;-80
2022/04/01 01:19:17;;;;;;;28.33;20.40;;;8.50;1.00;;;;;;5014104;28;20091;-80
2022/04/01 01:21:46;;;;;;;28.35;20.25;;;8.70;1.00;;;;;;5014737;28;20410;-80
2022/04/01 01:24:16;;;;;;;31.27;20.75;;;8.60;1.00;;;;;;5014143;28;20050;-80
2022/04/01 01:26:48;;;;;;;28.88;19.95;;;8.30;1.00;;;;;;5014435;28;20620;-80
2022/04/01 01:29:18;;;;;;;28.85;20.60;;;8.60;1.00;;;;;;5013905;28;20398;-80
2022/04/01 01:31:46;;;;;;;28.15;20.80;;;8.40;1.00;;;;;;5014255;28;20234;-80
2022/04/01 01:34:12;;;;;;;27.33;20.05;;;8.30;1.00;;;;;;5014271;28;20121;-81
2022/04/01 01:36:37;;;;;;;29.88;20.92;;;8.40;1.00;;;;;;5014267;28;20038;-80
2022/04/01 01:39:04;;;;;;;28.02;20.35;;;8.30;1.00;;;;;;5014185;28;20482;-79
2022/04/01 01:41:30;;;;;;;29.73;20.83;;;8.30;1.00;;;;;;5013578;28;20030;-80
2022/04/01 01:43:56;;;;;;;31.02;20.83;;;8.70;1.00;;;;;;5013884;28;20028;-81
2022/04/01 01:46:21;;;;;;;25.98;19.30;;;8.20;1.00;;;;;;5013391;28;20038;-80
2022/04/01 01:48:47;;;;;;;28.70;20.23;;;8.60;1.00;;;;;;5014284;28;20505;-82
2022/04/01 01:56:42;;;;;;;28.88;20.20;;;8.30;1.00;;;;;;5013247;28;20036;-80
2022/04/01 01:59:11;;;;;;;25.67;20.08;;;8.00;1.00;;;;;;5013259;28;20034;-81
2022/04/01 02:01:41;;;;;;;26.83;18.98;;;8.10;1.00;;;;;;5013096;28;20490;-81
2022/04/01 02:04:07;;;;;;;27.10;20.20;;;8.20;1.00;;;;;;5013313;28;20105;-81
2022/04/01 02:06:33;;;;;;;23.02;17.55;;;7.80;1.00;;;;;;5013518;28;20089;-81
2022/04/01 02:08:59;;;;;;;19.80;14.98;;;8.20;1.00;;;;;;5007477;28;20088;-80
2022/04/01 02:11:25;;;;;;;17.83;14.13;;;8.10;1.00;;;;;;5013313;28;20029;-81
2022/04/01 02:13:51;;;;;;;18.25;14.40;;;8.10;1.00;;;;;;5012950;28;20426;-81
2022/04/01 02:16:18;;;;;;;14.50;12.27;;;7.70;1.00;;;;;;5012847;28;20044;-80
2022/04/01 02:18:44;;;;;;;12.65;11.27;;;7.60;1.00;;;;;;5012814;28;20125;-80
2022/04/01 02:21:11;;;;;;;14.15;11.45;;;7.50;1.00;;;;;;5012967;28;20029;-80
2022/04/01 02:23:44;;;;;;;12.57;10.55;;;7.80;1.00;;;;;;5012673;28;20025;-80
2022/04/01 02:26:10;;;;;;;10.93;9.75;;;7.60;1.00;;;;;;5012636;28;20466;-81
2022/04/01 02:28:37;;;;;;;10.77;9.68;;;7.60;1.00;;;;;;5012686;28;20076;-81
2022/04/01 02:31:06;;;;;;;10.18;8.52;;;7.70;1.00;;;;;;5013497;28;20025;-81
2022/04/01 02:33:32;;;;;;;9.25;8.35;;;7.20;1.00;;;;;;5012581;28;20061;-79
2022/04/01 02:35:59;;;;;;;9.55;8.55;;;7.10;1.00;;;;;;5012487;28;20394;-81
2022/04/01 02:38:26;;;;;;;9.02;8.13;;;7.40;1.00;;;;;;5012427;28;20631;-80
2022/04/01 02:40:55;;;;;;;8.82;7.93;;;7.20;1.00;;;;;;5012418;28;20029;-81
2022/04/01 02:43:22;;;;;;;8.23;7.43;;;7.00;1.00;;;;;;5012825;28;20026;-80
2022/04/01 02:45:48;;;;;;;8.35;7.55;;;7.30;1.00;;;;;;5013221;28;20034;-81
2022/04/01 02:48:19;;;;;;;9.00;7.97;;;6.80;1.00;;;;;;5011804;28;20030;-80
2022/04/01 02:50:46;;;;;;;8.20;7.40;;;7.20;1.00;;;;;;5010918;28;20029;-80
2022/04/01 02:53:12;;;;;;;7.85;7.05;;;6.80;1.00;;;;;;5012335;28;20022;-80
2022/04/01 02:55:39;;;;;;;8.20;7.35;;;7.10;1.00;;;;;;5012250;28;20034;-80
2022/04/01 02:58:06;;;;;;;7.75;7.05;;;7.10;1.00;;;;;;5011462;28;20382;-82
2022/04/01 03:00:32;;;;;;;7.68;6.97;;;6.60;1.00;;;;;;5012877;28;20547;-82
2022/04/01 03:02:58;;;;;;;7.93;7.13;;;6.40;1.00;;;;;;5011723;28;20109;-83
2022/04/01 03:05:24;;;;;;;8.05;7.35;;;6.90;1.00;;;;;;5011847;28;20175;-82
2022/04/01 03:07:50;;;;;;;7.47;6.78;;;6.80;1.00;;;;;;5012441;28;20120;-82
2022/04/01 03:10:17;;;;;;;7.22;6.53;;;6.80;1.00;;;;;;5012292;28;20033;-82
2022/04/01 03:12:43;;;;;;;7.70;7.00;;;6.30;1.00;;;;;;5012500;28;20132;-82
2022/04/01 03:15:09;;;;;;;7.90;7.10;;;6.30;1.00;;;;;;5011712;28;20112;-83
2022/04/01 03:17:34;;;;;;;7.88;7.18;;;6.30;1.00;;;;;;5011913;28;20030;-80
2022/04/01 03:20:01;;;;;;;7.40;6.55;;;6.80;1.00;;;;;;5011897;28;20026;-80
2022/04/01 03:22:26;;;;;;;7.90;7.20;;;6.80;1.00;;;;;;5011718;28;20378;-80
2022/04/01 03:24:52;;;;;;;7.85;7.15;;;6.40;1.00;;;;;;5013103;28;20033;-82
2022/04/01 03:27:18;;;;;;;8.10;7.30;;;6.30;1.00;;;;;;5011526;28;20489;-80
2022/04/01 03:29:43;;;;;;;8.30;7.50;;;6.30;1.00;;;;;;5011411;28;20026;-80
2022/04/01 03:32:10;;;;;;;8.23;7.43;;;6.40;1.00;;;;;;5010931;28;20037;-82
2022/04/01 03:34:37;;;;;;;8.38;7.57;;;6.60;1.00;;;;;;5011503;28;20588;-82
2022/04/01 03:37:05;;;;;;;8.35;7.55;;;6.10;1.00;;;;;;5011828;28;20026;-81
2022/04/01 03:39:32;;;;;;;7.65;6.88;;;6.10;1.00;;;;;;5012346;28;20084;-80
2022/04/01 03:42:00;;;;;;;7.50;6.72;;;6.50;1.00;;;;;;5011342;28;20026;-80
2022/04/01 03:44:28;;;;;;;6.88;6.28;;;6.70;1.00;;;;;;5012017;28;20048;-80
2022/04/01 03:47:11;;;;;;;7.10;6.40;;;6.50;1.00;;;;;;5010937;28;20034;-82
2022/04/01 03:49:49;;;;;;;7.47;6.78;;;6.00;1.00;;;;;;4997812;28;20095;-80
2022/04/01 03:52:18;;;;;;;7.95;7.22;;;5.70;1.00;;;;;;5011216;28;20026;-82
2022/04/01 03:54:46;;;;;;;8.57;7.75;;;5.70;1.00;;;;;;5012540;28;20026;-81
2022/04/01 03:57:15;;;;;;;7.88;7.07;;;5.80;1.00;;;;;;5010724;28;20080;-82
2022/04/01 03:59:41;;;;;;;8.07;7.28;;;6.40;1.00;;;;;;5011350;28;20465;-82
2022/04/01 04:02:12;;;;;;;7.88;7.15;;;5.90;1.00;;;;;;5010900;28;20030;-82
2022/04/01 04:04:39;;;;;;;5.95;5.35;;;5.50;1.00;;;;;;5011181;28;20026;-80
2022/04/01 04:07:09;;;;;;;6.05;5.50;;;5.50;1.00;;;;;;5011743;28;20038;-82
2022/04/01 04:09:38;;;;;;;5.60;5.10;;;5.70;1.00;;;;;;5011541;28;20050;-81
2022/04/01 04:12:06;;;;;;;5.65;5.15;;;5.60;1.00;;;;;;5011588;28;20033;-81
2022/04/01 04:14:32;;;;;;;6.05;5.47;;;5.10;1.00;;;;;;5011280;28;20097;-82
2022/04/01 04:17:10;;;;;;;5.97;5.47;;;5.20;1.00;;;;;;5010397;28;20490;-82
2022/04/01 04:19:55;;;;;;;5.78;5.28;;;5.00;1.00;;;;;;4997694;28;20018;-82
2022/04/01 04:22:29;;;;;;;6.20;5.60;;;4.80;1.00;;;;;;5011403;28;20113;-80
2022/04/01 04:25:04;;;;;;;6.15;5.55;;;4.90;1.00;;;;;;5007625;28;20026;-80
2022/04/01 04:27:34;;;;;;;5.72;5.22;;;4.70;1.00;;;;;;5010487;28;20030;-80
2022/04/01 04:30:08;;;;;;;5.50;5.00;;;4.70;1.00;;;;;;5010746;28;20486;-80
2022/04/01 04:32:43;;;;;;;5.40;4.90;;;4.70;1.00;;;;;;5010882;28;20014;-80
2022/04/01 04:35:10;;;;;;;5.20;4.70;;;5.00;1.00;;;;;;5010621;28;20430;-81
2022/04/01 04:37:42;;;;;;;14.60;9.90;;;4.80;1.00;;;;;;5011557;28;20025;-82
2022/04/01 04:40:09;;;;;;;16.08;10.75;;;4.40;1.00;;;;;;5010841;28;20058;-82
2022/04/01 04:42:34;;;;;;;40.65;23.00;;;4.40;1.00;;;;;;5012827;28;20034;-82
2022/04/01 04:45:01;;;;;;;6.80;5.40;;;4.80;1.00;;;;;;5014951;28;20033;-80
2022/04/01 04:47:28;;;;;;;30.38;18.27;;;4.90;1.00;;;;;;5013174;28;20064;-82
2022/04/01 04:49:57;;;;;;;7.28;6.43;;;4.50;1.00;;;;;;5014601;28;20022;-82
2022/04/01 04:52:28;;;;;;;12.70;9.65;;;4.60;1.00;;;;;;5013508;28;20038;-82
2022/04/01 04:54:55;;;;;;;13.07;9.90;;;4.40;1.00;;;;;;5011137;28;20022;-82
2022/04/01 04:57:21;;;;;;;21.83;15.07;;;4.40;1.00;;;;;;5014948;28;20577;-82
2022/04/01 04:59:48;;;;;;;51.22;31.33;;;4.00;1.00;;;;;;5014032;28;20030;-82
2022/04/01 05:02:54;;;;;;;14.88;10.38;;;4.20;1.00;;;;;;5014289;28;20033;-82
2022/04/01 05:05:38;;;;;;;10.45;8.30;;;4.70;1.00;;;;;;4968763;28;20047;-82
2022/04/01 05:08:31;;;;;;;22.25;15.38;;;4.60;1.00;;;;;;4973328;28;20070;-82
2022/04/01 05:11:07;;;;;;;13.60;9.30;;;4.60;1.00;;;;;;4958417;28;20051;-82
2022/04/01 05:13:48;;;;;;;14.38;10.85;;;4.70;1.00;;;;;;4957489;28;20481;-82
2022/04/01 05:16:36;;;;;;;4.78;3.95;;;4.50;1.00;;;;;;4972611;28;20088;-82
2022/04/01 05:19:10;;;;;;;14.13;10.32;;;4.50;1.00;;;;;;4970628;28;20030;-82
2022/04/01 05:21:57;;;;;;;20.77;14.48;;;4.90;1.00;;;;;;4972843;28;20442;-82
2022/04/01 05:24:32;;;;;;;8.40;7.03;;;4.50;1.00;;;;;;4973053;28;20078;-82
2022/04/01 05:27:02;;;;;;;3.60;3.30;;;4.40;1.00;;;;;;4968392;28;20042;-82
2022/04/01 05:29:35;;;;;;;5.65;4.10;;;4.40;1.00;;;;;;4968504;28;20131;-82
2022/04/01 05:32:07;;;;;;;7.38;5.38;;;4.40;1.00;;;;;;4968671;28;20057;-82
2022/04/01 05:34:41;;;;;;;26.27;19.13;;;4.30;1.00;;;;;;4972977;28;20392;-82
2022/04/01 05:37:07;;;;;;;6.72;4.60;;;4.30;1.00;;;;;;4973255;28;20045;-83
2022/04/01 05:39:36;;;;;;;34.28;24.50;;;4.30;1.00;;;;;;4969163;28;20034;-82
2022/04/01 05:42:03;;;;;;;3.95;3.55;;;4.50;1.00;;;;;;5000169;28;20050;-82
2022/04/01 05:44:29;;;;;;;7.25;6.55;;;4.40;1.00;;;;;;5013644;28;20049;-82
2022/04/01 05:46:56;;;;;;;5.85;4.57;;;4.20;1.00;;;;;;5013883;28;20036;-82
2022/04/01 05:49:22;;;;;;;7.18;5.10;;;4.20;1.00;;;;;;5013871;28;20022;-82
2022/04/01 05:51:48;;;;;;;6.45;5.55;;;4.10;1.00;;;;;;5013905;28;20026;-82
2022/04/01 05:54:19;;;;;;;15.27;12.48;;;4.00;1.00;;;;;;5012970;28;20025;-82
2022/04/01 05:56:47;;;;;;;9.63;8.63;;;4.10;1.00;;;;;;5012884;28;20030;-81
2022/04/01 05:59:14;;;;;;;8.95;8.05;;;4.00;1.00;;;;;;5013313;28;20548;-83
2022/04/01 06:01:47;;;;;;;12.77;9.77;;;4.10;1.00;;;;;;5013609;28;20025;-82
2022/04/01 06:04:30;;;;;;;5.47;5.00;;;4.50;1.00;;;;;;5013332;28;20028;-82
2022/04/01 06:07:34;;;;;;;12.23;10.32;;;4.20;1.00;;;;;;5009798;28;20045;-82
2022/04/01 06:10:05;;;;;;;14.38;12.05;;;4.30;1.00;;;;;;5008810;28;20077;-82
2022/04/01 06:13:03;;;;;;;8.02;7.25;;;4.40;1.00;;;;;;5012950;28;20061;-82
2022/04/01 06:15:34;;;;;;;9.27;5.63;;;4.00;1.00;;;;;;5012763;28;20033;-82
2022/04/01 06:18:09;;;;;;;7.45;6.75;;;3.80;1.00;;;;;;5012865;28;20036;-83
2022/04/01 06:20:37;;;;;;;6.35;5.53;;;3.90;1.00;;;;;;5013333;28;20025;-82
2022/04/01 06:23:08;;;;;;;11.30;9.88;;;4.30;1.00;;;;;;5012805;28;20026;-83
2022/04/01 06:25:42;;;;;;;6.18;5.53;;;4.00;1.00;;;;;;5012295;28;20044;-83
2022/04/01 06:28:20;;;;;;;6.70;6.10;;;4.50;1.00;;;;;;5013073;28;20022;-83
2022/04/01 06:30:48;;;;;;;7.00;6.35;;;3.90;1.00;;;;;;5012906;28;20029;-82
2022/04/01 06:33:42;;;;;;;6.63;5.82;;;4.60;1.00;;;;;;5013053;28;20447;-82
2022/04/01 06:36:13;;;;;;;5.82;5.32;;;4.10;1.00;;;;;;4948415;29;20256;-82
2022/04/01 06:38:47;;;;;;;6.88;6.28;;;4.40;1.00;;;;;;4947760;29;20034;-83
2022/04/01 06:41:18;;;;;;;6.80;6.10;;;4.20;1.00;;;;;;4947394;29;20044;-82
2022/04/01 06:43:44;;;;;;;9.85;8.98;;;3.90;1.00;;;;;;4950042;29;20458;-82
2022/04/01 06:46:10;;;;;;;7.70;7.00;;;4.30;1.00;;;;;;4950555;29;20138;-82
2022/04/01 06:48:36;;;;;;;10.10;9.20;;;4.60;1.00;;;;;;4950885;29;20042;-82
2022/04/01 06:51:02;;;;;;;6.72;6.13;;;4.60;1.00;;;;;;4947497;29;20122;-82
2022/04/01 06:53:28;;;;;;;6.32;5.72;;;4.40;1.00;;;;;;4951698;29;20134;-83
2022/04/01 06:55:54;;;;;;;10.68;9.73;;;4.10;1.00;;;;;;4947871;29;20119;-82
2022/04/01 06:58:21;;;;;;;7.97;7.28;;;4.20;1.00;;;;;;4952303;29;20148;-82
2022/04/01 07:00:46;;;;;;;5.93;5.32;;;4.90;1.00;;;;;;4952325;29;20043;-82
2022/04/01 07:03:12;;;;;;;6.78;6.15;;;4.70;1.00;;;;;;4947093;29;20039;-82
2022/04/01 07:05:39;;;;;;;6.53;5.93;;;4.70;1.00;;;;;;4946826;28;20051;-82
2022/04/01 07:08:06;;;;;;;7.13;6.53;;;4.00;1.00;;;;;;4947707;29;20067;-81
2022/04/01 07:10:32;;;;;;;6.95;6.10;;;4.20;1.00;;;;;;4951076;29;20035;-82
2022/04/01 07:12:58;;;;;;;7.32;6.63;;;4.00;1.00;;;;;;4981244;28;20564;-90
2022/04/01 07:15:24;;;;;;;7.50;6.80;;;4.30;1.00;;;;;;5012009;28;20121;-86
2022/04/01 07:17:50;;;;;;;7.38;6.68;;;4.50;1.00;;;;;;5012693;28;20026;-87
2022/04/01 07:20:16;;;;;;;7.45;6.82;;;4.40;1.00;;;;;;5012627;28;20029;-86
2022/04/01 07:22:42;;;;;;;6.95;6.00;;;4.60;1.00;;;;;;5012708;28;20036;-86
2022/04/01 07:25:12;;;;;;;6.30;5.30;;;4.60;1.00;;;;;;5011773;28;20037;-87
2022/04/01 07:27:38;;;;;;;9.45;8.00;;;4.40;1.00;;;;;;5010912;28;20700;-86
2022/04/01 07:30:08;;;;;;;9.73;8.73;;;4.10;1.00;;;;;;5012691;28;20069;-86
2022/04/01 07:32:35;;;;;;;34.95;22.55;;;4.10;1.00;;;;;;5010985;28;20065;-85
2022/04/01 07:35:03;;;;;;;9.98;7.95;;;3.80;1.00;;;;;;5012546;28;20422;-86
2022/04/01 07:37:29;;;;;;;8.40;6.50;;;3.90;1.00;;;;;;5012029;28;20080;-85
2022/04/01 07:39:57;;;;;;;10.48;6.65;;;3.50;1.00;;;;;;5011007;28;20037;-87
2022/04/01 07:42:27;;;;;;;9.40;7.25;;;3.80;1.00;;;;;;5012224;28;20033;-87
2022/04/01 07:44:53;;;;;;;8.90;6.60;;;3.50;1.00;;;;;;5011904;28;20030;-88
2022/04/01 07:47:21;;;;;;;10.48;7.78;;;3.80;1.00;;;;;;5012511;28;20116;-85
2022/04/01 07:49:46;;;;;;;8.23;7.25;;;3.80;1.00;;;;;;5012068;28;20029;-88
2022/04/01 07:52:14;;;;;;;7.95;6.85;;;4.00;1.00;;;;;;5013084;28;20034;-88
2022/04/01 07:54:42;;;;;;;6.90;6.20;;;3.70;1.00;;;;;;5012073;28;20375;-85
2022/04/01 07:57:09;;;;;;;9.20;6.20;;;3.80;1.00;;;;;;5011624;28;20117;-85
2022/04/01 07:59:35;;;;;;;9.75;6.90;;;3.50;1.00;;;;;;5012002;28;20025;-86
2022/04/01 08:02:01;;;;;;;6.68;5.63;;;3.60;1.00;;;;;;5012055;28;20034;-85
2022/04/01 08:04:27;;;;;;;9.20;5.57;;;3.80;1.00;;;;;;5011792;28;20026;-85
2022/04/01 08:06:54;;;;;;;19.98;12.23;;;4.30;1.00;;;;;;5012382;28;20029;-85
2022/04/01 08:09:20;;;;;;;13.90;9.43;;;3.80;1.00;;;;;;5012105;28;20111;-86
2022/04/01 08:11:46;;;;;;;28.55;18.38;;;4.10;1.00;;;;;;5011768;28;20471;-86
2022/04/01 08:14:12;;;;;;;7.75;5.85;;;4.00;1.00;;;;;;5011648;28;20092;-86
2022/04/01 08:16:38;;;;;;;7.43;5.90;;;4.00;1.00;;;;;;5012407;28;20030;-85
2022/04/01 08:19:04;;;;;;;9.02;6.13;;;4.60;1.00;;;;;;5014630;28;20030;-85
2022/04/01 08:21:31;;;;;;;8.20;6.60;;;4.00;1.00;;;;;;5015550;28;20084;-85
2022/04/01 08:23:57;;;;;;;11.85;10.05;;;4.40;1.00;;;;;;5015545;28;20040;-86
2022/04/01 08:26:24;;;;;;;7.93;6.03;;;4.40;1.00;;;;;;5015934;28;20046;-86
2022/04/01 08:28:50;;;;;;;6.90;6.20;;;4.50;1.00;;;;;;5015700;28;20045;-86
2022/04/01 08:31:16;;;;;;;7.50;5.78;;;4.60;1.00;;;;;;5015979;28;20037;-85
2022/04/01 08:33:41;;;;;;;10.65;9.38;;;4.50;1.00;;;;;;5016029;28;20025;-85
2022/04/01 08:36:07;;;;;;;7.00;5.50;;;4.60;1.00;;;;;;5014871;28;20116;-86
2022/04/01 08:38:33;;;;;;;10.38;8.82;;;4.70;1.00;;;;;;5016161;28;20041;-85
2022/04/01 08:40:59;;;;;;;7.43;5.30;;;4.60;1.00;;;;;;5014977;28;20088;-86
2022/04/01 08:43:32;;;;;;;6.47;5.68;;;4.80;1.00;;;;;;5000178;28;20549;-85
2022/04/01 08:46:00;;;;;;;6.15;5.30;;;4.80;1.00;;;;;;5012451;28;20037;-86
2022/04/01 08:48:27;;;;;;;7.95;5.35;;;4.80;1.00;;;;;;5015305;28;20413;-86
2022/04/01 08:50:54;;;;;;;11.98;10.65;;;4.80;1.00;;;;;;5013674;28;20022;-86
2022/04/01 08:53:20;;;;;;;6.07;5.13;;;4.50;1.00;;;;;;5015468;28;20108;-86
2022/04/01 08:55:54;;;;;;;6.03;5.18;;;4.80;1.00;;;;;;5015220;28;20026;-86
2022/04/01 08:58:21;;;;;;;5.45;4.95;;;4.60;1.00;;;;;;5015411;28;20041;-86
2022/04/01 09:00:48;;;;;;;6.45;5.80;;;5.30;1.00;;;;;;5015549;28;20374;-86
2022/04/01 09:03:16;;;;;;;12.70;11.00;;;4.80;1.00;;;;;;5014037;28;20390;-86
2022/04/01 09:05:51;;;;;;;5.43;4.72;;;5.10;1.00;;;;;;5014263;28;20574;-86
2022/04/01 09:08:26;;;;;;;17.10;15.32;;;5.20;1.00;;;;;;5015145;28;20116;-86
2022/04/01 09:10:55;;;;;;;10.93;9.13;;;5.70;1.00;;;;;;5014887;28;20545;-87
2022/04/01 09:13:24;;;;;;;6.25;5.65;;;5.70;1.00;;;;;;5015514;28;20057;-86
2022/04/01 09:15:50;;;;;;;8.88;7.40;;;5.90;1.00;;;;;;5015179;28;20030;-86
2022/04/01 09:18:39;;;;;;;4.57;3.60;;;5.40;1.00;;;;;;5015101;28;20026;-86
2022/04/01 09:21:06;;;;;;;4.22;3.10;;;5.10;1.00;;;;;;5014329;28;20034;-86
2022/04/01 09:23:32;;;;;;;4.40;2.92;;;5.10;1.00;;;;;;5014704;28;20493;-86
2022/04/01 09:25:58;;;;;;;6.95;6.03;;;5.40;1.00;;;;;;5014538;28;20041;-86
2022/04/01 09:28:31;;;;;;;4.75;2.72;;;4.80;1.00;;;;;;5014307;28;20100;-86
2022/04/01 09:31:02;;;;;;;12.38;10.27;;;4.50;1.00;;;;;;5011533;28;20034;-86
2022/04/01 09:33:48;;;;;;;8.10;6.68;;;4.80;1.00;;;;;;5014652;28;20049;-86
2022/04/01 09:36:18;;;;;;;3.15;2.67;;;4.80;1.00;;;;;;5014229;28;20514;-86
2022/04/01 09:39:02;;;;;;;6.50;3.17;;;4.80;1.00;;;;;;5014424;28;20463;-86
2022/04/01 09:41:44;;;;;;;7.00;3.75;;;4.80;1.00;;;;;;5014172;28;20100;-86
2022/04/01 09:44:15;;;;;;;4.35;2.30;;;5.00;1.00;;;;;;5014642;28;20081;-86
2022/04/01 09:46:43;;;;;;;3.72;2.70;;;5.30;1.00;;;;;;5014360;28;20064;-86
2022/04/01 09:49:09;;;;;;;5.85;3.88;;;5.10;1.00;;;;;;5013853;28;20026;-86
2022/04/01 09:51:39;;;;;;;8.02;5.35;;;5.00;1.00;;;;;;5014979;28;20033;-86
2022/04/01 09:54:05;;;;;;;8.18;4.40;;;5.10;1.00;;;;;;5012665;28;20026;-86
2022/04/01 09:56:41;;;;;;;7.38;5.47;;;5.00;1.00;;;;;;5014220;28;20113;-86
2022/04/01 09:59:08;;;;;;;6.97;4.53;;;4.80;1.00;;;;;;5013911;28;20029;-86
2022/04/01 10:01:35;;;;;;;7.13;4.10;;;5.00;1.00;;;;;;5013552;28;20117;-86
2022/04/01 10:04:02;;;;;;;3.70;2.72;;;4.90;1.00;;;;;;5014124;28;20068;-86
2022/04/01 10:06:30;;;;;;;3.65;2.05;;;4.90;1.00;;;;;;5012864;28;20486;-86
2022/04/01 10:08:58;;;;;;;6.30;2.85;;;4.80;1.00;;;;;;5014124;28;20525;-86
2022/04/01 10:11:24;;;;;;;4.68;2.75;;;4.80;1.00;;;;;;5012425;28;20556;-86
2022/04/01 10:13:51;;;;;;;9.68;7.07;;;5.00;1.00;;;;;;5013641;28;20026;-86
2022/04/01 10:16:17;;;;;;;3.80;3.13;;;5.10;1.00;;;;;;5014017;28;20991;-87
2022/04/01 10:18:47;;;;;;;10.30;8.05;;;5.20;1.00;;;;;;5013832;28;20030;-87
2022/04/01 10:21:17;;;;;;;5.88;4.28;;;5.20;1.00;;;;;;5013758;28;20034;-86
2022/04/01 10:23:48;;;;;;;5.38;2.58;;;5.80;1.00;;;;;;5013747;28;20075;-86
2022/04/01 10:26:17;;;;;;;3.10;2.53;;;5.30;1.00;;;;;;5013568;28;20041;-86
2022/04/01 10:28:47;;;;;;;4.75;2.05;;;5.10;1.00;;;;;;5013598;28;20091;-86
2022/04/01 10:31:14;;;;;;;2.90;1.90;;;4.90;1.00;;;;;;5013350;28;20037;-86
2022/04/01 10:33:40;;;;;;;6.15;2.42;;;4.80;1.00;;;;;;5013471;28;20025;-86
2022/04/01 10:36:22;;;;;;;18.55;8.90;;;5.00;1.00;;;;;;5013603;28;20042;-86
2022/04/01 10:38:50;;;;;;;219.18;100.53;;;5.00;1.00;;;;;;5013229;28;20022;-86
2022/04/01 10:41:18;;;;;;;17.27;9.65;;;5.20;1.00;;;;;;5012895;28;20026;-86
2022/04/01 10:43:45;;;;;;;28.05;17.92;;;5.10;1.00;;;;;;5013102;28;20025;-86
2022/04/01 10:46:16;;;;;;;8.15;4.68;;;5.10;1.00;;;;;;5013055;28;20034;-86
2022/04/01 10:52:11;;;;;;;62.13;38.40;;;5.20;1.00;;;;;;5013657;28;20449;-86
2022/04/01 10:54:42;;;;;;;34.45;21.27;;;5.40;1.00;;;;;;5013783;28;20381;-86
2022/04/01 10:57:10;;;;;;;20.85;13.52;;;5.10;1.00;;;;;;5013119;28;20055;-86
2022/04/01 10:59:46;;;;;;;7.15;3.38;;;5.20;1.00;;;;;;5012702;28;20061;-86
2022/04/01 11:02:19;;;;;;;12.65;9.30;;;5.00;1.00;;;;;;5012273;28;20025;-86
2022/04/01 11:04:50;;;;;;;6.53;3.75;;;4.80;1.00;;;;;;5012447;28;20040;-86
2022/04/01 11:07:22;;;;;;;6.40;2.78;;;4.90;1.00;;;;;;5013079;28;20042;-86
2022/04/01 11:09:50;;;;;;;7.28;5.60;;;5.20;1.00;;;;;;5013507;28;20541;-86
2022/04/01 11:12:15;;;;;;;15.73;12.25;;;4.80;1.00;;;;;;5012530;28;20034;-86
2022/04/01 11:14:59;;;;;;;18.42;11.70;;;5.00;1.00;;;;;;5012539;28;20036;-86
2022/04/01 11:17:34;;;;;;;6.75;4.00;;;4.90;1.00;;;;;;5012240;28;20549;-86
2022/04/01 11:20:02;;;;;;;9.48;4.20;;;5.30;1.00;;;;;;5011248;28;20127;-86
2022/04/01 11:22:59;;;;;;;3.55;2.03;;;5.00;1.00;;;;;;5013199;28;20025;-86
2022/04/01 11:25:25;;;;;;;9.48;7.13;;;5.10;1.00;;;;;;4996679;28;20061;-86
2022/04/01 11:27:52;;;;;;;9.75;6.18;;;5.30;1.00;;;;;;5013091;28;20054;-86
2022/04/01 11:30:24;;;;;;;6.40;2.63;;;5.60;1.00;;;;;;5012084;28;20053;-86
2022/04/01 11:32:55;;;;;;;14.27;10.38;;;5.60;1.00;;;;;;5012162;28;20030;-85
2022/04/01 11:35:23;;;;;;;14.98;11.75;;;5.00;1.00;;;;;;5012028;28;20418;-86
2022/04/01 11:37:49;;;;;;;9.07;7.22;;;5.00;1.00;;;;;;5012576;28;20045;-86
2022/04/01 11:40:22;;;;;;;7.45;4.72;;;5.10;1.00;;;;;;5012049;28;20026;-86
2022/04/01 11:43:02;;;;;;;7.07;3.80;;;5.10;1.00;;;;;;5012633;28;20029;-86
2022/04/01 11:45:33;;;;;;;12.55;7.88;;;5.20;1.00;;;;;;5011788;28;20073;-86
2022/04/01 11:48:00;;;;;;;18.83;13.77;;;5.30;1.00;;;;;;5011771;28;20044;-86
2022/04/01 11:50:25;;;;;;;11.48;8.23;;;5.30;1.00;;;;;;5011945;28;20395;-86
2022/04/01 11:52:54;;;;;;;17.10;13.05;;;5.80;1.00;;;;;;5011491;28;20032;-87
2022/04/01 11:55:22;;;;;;;20.85;15.40;;;5.20;1.00;;;;;;5012271;28;20120;-86
2022/04/01 11:57:51;;;;;;;24.17;17.17;;;5.20;1.00;;;;;;5012557;28;20368;-85
2022/04/01 12:00:19;;;;;;;15.52;11.35;;;5.40;1.00;;;;;;5011163;28;20494;-86
2022/04/01 12:02:47;;;;;;;20.92;16.42;;;5.10;1.00;;;;;;5011401;28;20512;-85
2022/04/01 12:05:14;;;;;;;12.35;6.68;;;5.30;1.00;;;;;;5011555;28;20107;-86
2022/04/01 12:10:27;;;;;;;7.10;2.38;;;5.60;1.00;;;;;;5012247;28;20044;-85
2022/04/01 12:12:58;;;;;;;8.80;7.07;;;5.60;1.00;;;;;;5012701;28;20022;-86
2022/04/01 12:15:34;;;;;;;7.53;4.60;;;5.50;1.00;;;;;;5011776;28;20449;-86
2022/04/01 12:18:01;;;;;;;8.10;4.97;;;5.60;1.00;;;;;;5011559;28;20034;-86
2022/04/01 12:20:28;;;;;;;6.30;3.42;;;5.70;1.00;;;;;;5011808;28;20029;-86
2022/04/01 12:22:56;;;;;;;6.13;3.22;;;5.70;1.00;;;;;;5012032;28;20032;-86
2022/04/01 12:25:22;;;;;;;4.10;2.25;;;5.30;1.00;;;;;;5011281;28;20126;-86
2022/04/01 12:27:56;;;;;;;8.98;6.78;;;5.00;1.00;;;;;;5012182;28;20398;-86
2022/04/01 12:30:39;;;;;;;8.23;3.15;;;5.40;1.00;;;;;;5011846;28;20026;-86
2022/04/01 12:33:08;;;;;;;18.77;11.82;;;5.10;1.00;;;;;;5011684;28;20049;-86
2022/04/01 12:35:34;;;;;;;7.45;4.35;;;5.20;1.00;;;;;;5011320;28;20429;-86
2022/04/01 12:38:05;;;;;;;7.30;4.80;;;5.00;1.00;;;;;;5011998;28;20564;-86
2022/04/01 12:40:51;;;;;;;13.55;8.25;;;5.10;1.00;;;;;;4997045;28;20429;-87
2022/04/01 12:43:35;;;;;;;8.70;3.10;;;5.50;1.00;;;;;;5011171;28;20022;-86
2022/04/01 12:46:17;;;;;;;10.25;4.93;;;4.90;1.00;;;;;;5008324;28;20041;-86
2022/04/01 12:49:09;;;;;;;6.10;2.97;;;5.10;1.00;;;;;;5012012;28;20018;-86
2022/04/01 12:51:36;;;;;;;13.10;8.27;;;5.40;1.00;;;;;;5012353;28;20397;-87
2022/04/01 12:54:10;;;;;;;9.80;7.30;;;5.90;1.00;;;;;;5010979;28;20060;-87
2022/04/01 12:56:42;;;;;;;7.05;3.80;;;5.60;1.00;;;;;;5010136;28;20387;-87
2022/04/01 12:59:09;;;;;;;23.58;15.18;;;6.00;1.00;;;;;;5011667;28;20033;-86
2022/04/01 13:01:37;;;;;;;4.97;2.75;;;5.90;1.00;;;;;;5011536;28;20509;-86
2022/04/01 13:04:03;;;;;;;66.10;37.67;;;5.90;1.00;;;;;;5013791;28;20026;-86
2022/04/01 13:06:29;;;;;;;14.93;10.80;;;5.90;1.00;;;;;;5015183;28;20069;-86
2022/04/01 13:09:09;;;;;;;12.02;8.57;;;6.00;1.00;;;;;;5015303;28;20030;-86
2022/04/01 13:11:46;;;;;;;10.02;6.65;;;6.20;1.00;;;;;;5014602;28;20608;-87
2022/04/01 13:14:29;;;;;;;12.52;9.43;;;6.70;1.00;;;;;;5013577;28;20439;-87
2022/04/01 13:16:58;;;;;;;8.93;2.72;;;6.70;1.00;;;;;;5015201;28;20038;-86
2022/04/01 13:19:33;;;;;;;4.90;2.10;;;6.50;1.00;;;;;;5015160;28;20133;-87
2022/04/01 13:22:04;;;;;;;13.43;8.60;;;6.40;1.00;;;;;;5011539;28;20038;-87
2022/04/01 13:24:47;;;;;;;21.70;14.05;;;6.30;1.00;;;;;;5014367;28;20263;-87
2022/04/01 13:27:18;;;;;;;6.40;3.75;;;6.00;1.00;;;;;;5008698;28;20141;-87